sensor_id;sensor_type;location;lat;lon;timestamp;P1;durP1;ratioP1;P2;durP2;ratioP2
63900;SDS011;50538;53.482;10.294;2022-09-09T00:04:15;7.22;;;3.25;;
63900;SDS011;50538;53.482;10.294;2022-09-09T00:14:27;6.82;;;3.08;;
63900;SDS011;50538;53.482;10.294;2022-09-09T00:35:22;9.80;;;3.90;;
63900;SDS011;50538;53.482;10.294;2022-09-09T00:55:52;11.27;;;4.22;;
63900;SDS011;50538;53.482;10.294;2022-09-09T01:16:16;12.98;;;4.60;;
63900;SDS011;50538;53.482;10.294;2022-09-09T01:36:42;11.10;;;4.07;;
63900;SDS011;50538;53.482;10.294;2022-09-09T01:46:47;9.25;;;4.05;;
63900;SDS011;50538;53.482;10.294;2022-09-09T02:07:46;7.60;;;3.58;;
63900;SDS011;50538;53.482;10.294;2022-09-09T02:17:45;7.85;;;3.20;;
63900;SDS011;50538;53.482;10.294;2022-09-09T02:27:53;8.77;;;3.67;;
63900;SDS011;50538;53.482;10.294;2022-09-09T02:37:55;8.60;;;3.70;;
63900;SDS011;50538;53.482;10.294;2022-09-09T02:48:03;11.70;;;3.67;;
63900;SDS011;50538;53.482;10.294;2022-09-09T02:58:09;9.93;;;3.85;;
63900;SDS011;50538;53.482;10.294;2022-09-09T03:08:16;6.90;;;3.28;;
63900;SDS011;50538;53.482;10.294;2022-09-09T03:18:20;7.78;;;3.30;;
63900;SDS011;50538;53.482;10.294;2022-09-09T03:28:21;8.93;;;3.27;;
63900;SDS011;50538;53.482;10.294;2022-09-09T03:38:25;9.80;;;4.53;;
63900;SDS011;50538;53.482;10.294;2022-09-09T03:48:28;8.27;;;3.20;;
63900;SDS011;50538;53.482;10.294;2022-09-09T03:58:29;7.40;;;3.13;;
63900;SDS011;50538;53.482;10.294;2022-09-09T04:08:30;8.52;;;3.58;;
63900;SDS011;50538;53.482;10.294;2022-09-09T04:18:35;9.35;;;3.45;;
63900;SDS011;50538;53.482;10.294;2022-09-09T04:28:36;5.60;;;2.47;;
63900;SDS011;50538;53.482;10.294;2022-09-09T04:38:37;7.07;;;2.83;;
63900;SDS011;50538;53.482;10.294;2022-09-09T04:48:37;4.88;;;2.60;;
63900;SDS011;50538;53.482;10.294;2022-09-09T04:58:38;6.03;;;3.00;;
63900;SDS011;50538;53.482;10.294;2022-09-09T05:08:39;5.13;;;2.28;;
63900;SDS011;50538;53.482;10.294;2022-09-09T05:18:41;6.22;;;2.60;;
63900;SDS011;50538;53.482;10.294;2022-09-09T05:28:46;5.68;;;2.40;;
63900;SDS011;50538;53.482;10.294;2022-09-09T05:38:46;5.07;;;1.88;;
63900;SDS011;50538;53.482;10.294;2022-09-09T05:48:48;4.65;;;2.17;;
63900;SDS011;50538;53.482;10.294;2022-09-09T06:08:54;3.60;;;1.60;;
63900;SDS011;50538;53.482;10.294;2022-09-09T06:18:58;4.17;;;1.67;;
63900;SDS011;50538;53.482;10.294;2022-09-09T06:28:59;3.85;;;1.63;;
63900;SDS011;50538;53.482;10.294;2022-09-09T06:39:02;5.25;;;1.50;;
63900;SDS011;50538;53.482;10.294;2022-09-09T06:49:03;3.60;;;1.60;;
63900;SDS011;50538;53.482;10.294;2022-09-09T06:59:04;2.60;;;1.42;;
63900;SDS011;50538;53.482;10.294;2022-09-09T07:09:12;4.15;;;1.50;;
63900;SDS011;50538;53.482;10.294;2022-09-09T07:19:15;4.07;;;1.45;;
63900;SDS011;50538;53.482;10.294;2022-09-09T07:29:15;4.18;;;1.80;;
63900;SDS011;50538;53.482;10.294;2022-09-09T07:39:15;3.00;;;1.55;;
63900;SDS011;50538;53.482;10.294;2022-09-09T07:49:17;3.85;;;1.48;;
63900;SDS011;50538;53.482;10.294;2022-09-09T07:59:18;2.35;;;1.17;;
63900;SDS011;50538;53.482;10.294;2022-09-09T08:09:19;4.03;;;1.23;;
63900;SDS011;50538;53.482;10.294;2022-09-09T08:19:32;2.50;;;1.30;;
63900;SDS011;50538;53.482;10.294;2022-09-09T08:29:43;1.98;;;1.27;;
63900;SDS011;50538;53.482;10.294;2022-09-09T08:39:45;3.00;;;1.48;;
63900;SDS011;50538;53.482;10.294;2022-09-09T09:00:30;3.95;;;1.25;;
63900;SDS011;50538;53.482;10.294;2022-09-09T09:10:47;3.22;;;1.00;;
63900;SDS011;50538;53.482;10.294;2022-09-09T09:31:12;2.28;;;1.15;;
63900;SDS011;50538;53.482;10.294;2022-09-09T09:41:13;3.58;;;1.48;;
63900;SDS011;50538;53.482;10.294;2022-09-09T09:51:14;3.08;;;1.30;;
63900;SDS011;50538;53.482;10.294;2022-09-09T10:01:22;2.90;;;1.30;;
63900;SDS011;50538;53.482;10.294;2022-09-09T10:11:44;4.55;;;1.48;;
63900;SDS011;50538;53.482;10.294;2022-09-09T10:22:26;0.97;;;0.80;;
63900;SDS011;50538;53.482;10.294;2022-09-09T10:42:29;8.30;;;1.58;;
63900;SDS011;50538;53.482;10.294;2022-09-09T11:02:43;1.50;;;0.90;;
63900;SDS011;50538;53.482;10.294;2022-09-09T11:12:44;3.15;;;1.10;;
63900;SDS011;50538;53.482;10.294;2022-09-09T11:22:55;1.90;;;1.13;;
63900;SDS011;50538;53.482;10.294;2022-09-09T11:33:13;5.53;;;1.25;;
63900;SDS011;50538;53.482;10.294;2022-09-09T11:43:45;3.20;;;1.23;;
63900;SDS011;50538;53.482;10.294;2022-09-09T11:53:49;3.13;;;1.00;;
63900;SDS011;50538;53.482;10.294;2022-09-09T12:04:00;1.63;;;0.80;;
63900;SDS011;50538;53.482;10.294;2022-09-09T12:14:23;1.67;;;1.08;;
63900;SDS011;50538;53.482;10.294;2022-09-09T12:24:43;1.92;;;1.10;;
63900;SDS011;50538;53.482;10.294;2022-09-09T12:34:55;2.08;;;1.08;;
63900;SDS011;50538;53.482;10.294;2022-09-09T12:45:02;2.55;;;1.02;;
63900;SDS011;50538;53.482;10.294;2022-09-09T12:55:20;2.38;;;1.10;;
63900;SDS011;50538;53.482;10.294;2022-09-09T13:05:26;1.15;;;0.70;;
63900;SDS011;50538;53.482;10.294;2022-09-09T13:15:28;0.70;;;0.70;;
63900;SDS011;50538;53.482;10.294;2022-09-09T13:25:29;1.77;;;0.80;;
63900;SDS011;50538;53.482;10.294;2022-09-09T13:35:30;1.27;;;0.60;;
63900;SDS011;50538;53.482;10.294;2022-09-09T13:45:32;0.63;;;0.60;;
63900;SDS011;50538;53.482;10.294;2022-09-09T13:55:35;4.57;;;0.70;;
63900;SDS011;50538;53.482;10.294;2022-09-09T14:05:36;1.35;;;0.85;;
63900;SDS011;50538;53.482;10.294;2022-09-09T14:15:37;2.22;;;1.10;;
63900;SDS011;50538;53.482;10.294;2022-09-09T14:25:42;2.85;;;1.05;;
63900;SDS011;50538;53.482;10.294;2022-09-09T14:35:46;7.60;;;1.13;;
63900;SDS011;50538;53.482;10.294;2022-09-09T14:45:46;4.40;;;1.00;;
63900;SDS011;50538;53.482;10.294;2022-09-09T14:55:48;2.60;;;1.00;;
63900;SDS011;50538;53.482;10.294;2022-09-09T15:05:49;4.80;;;1.10;;
63900;SDS011;50538;53.482;10.294;2022-09-09T15:15:49;2.70;;;1.10;;
63900;SDS011;50538;53.482;10.294;2022-09-09T15:25:51;0.70;;;0.70;;
63900;SDS011;50538;53.482;10.294;2022-09-09T15:35:52;1.85;;;0.90;;
63900;SDS011;50538;53.482;10.294;2022-09-09T15:45:57;2.07;;;0.70;;
63900;SDS011;50538;53.482;10.294;2022-09-09T15:56:06;1.88;;;0.70;;
63900;SDS011;50538;53.482;10.294;2022-09-09T16:06:09;2.50;;;0.67;;
63900;SDS011;50538;53.482;10.294;2022-09-09T16:16:10;1.48;;;0.63;;
63900;SDS011;50538;53.482;10.294;2022-09-09T16:36:16;1.80;;;0.77;;
63900;SDS011;50538;53.482;10.294;2022-09-09T16:46:18;1.77;;;0.97;;
63900;SDS011;50538;53.482;10.294;2022-09-09T16:56:29;2.17;;;0.98;;
63900;SDS011;50538;53.482;10.294;2022-09-09T17:06:33;2.67;;;0.85;;
63900;SDS011;50538;53.482;10.294;2022-09-09T17:16:34;1.52;;;0.93;;
63900;SDS011;50538;53.482;10.294;2022-09-09T17:26:35;2.03;;;0.80;;
63900;SDS011;50538;53.482;10.294;2022-09-09T17:36:38;1.55;;;0.90;;
63900;SDS011;50538;53.482;10.294;2022-09-09T17:46:42;1.75;;;1.05;;
63900;SDS011;50538;53.482;10.294;2022-09-09T17:56:46;1.83;;;0.95;;
63900;SDS011;50538;53.482;10.294;2022-09-09T18:06:49;1.25;;;0.80;;
63900;SDS011;50538;53.482;10.294;2022-09-09T18:16:54;1.80;;;0.88;;
63900;SDS011;50538;53.482;10.294;2022-09-09T18:27:05;1.65;;;0.80;;
63900;SDS011;50538;53.482;10.294;2022-09-09T18:37:10;0.70;;;0.70;;
63900;SDS011;50538;53.482;10.294;2022-09-09T18:47:11;4.17;;;1.60;;
63900;SDS011;50538;53.482;10.294;2022-09-09T18:57:11;2.35;;;0.95;;
63900;SDS011;50538;53.482;10.294;2022-09-09T19:07:22;1.33;;;1.02;;
63900;SDS011;50538;53.482;10.294;2022-09-09T19:17:22;1.63;;;1.13;;
63900;SDS011;50538;53.482;10.294;2022-09-09T19:27:25;1.25;;;0.93;;
63900;SDS011;50538;53.482;10.294;2022-09-09T19:37:53;1.85;;;1.10;;
63900;SDS011;50538;53.482;10.294;2022-09-09T19:48:13;4.07;;;1.02;;
63900;SDS011;50538;53.482;10.294;2022-09-09T19:58:44;1.20;;;0.80;;
63900;SDS011;50538;53.482;10.294;2022-09-09T20:19:18;1.50;;;0.90;;
63900;SDS011;50538;53.482;10.294;2022-09-09T20:29:40;1.52;;;0.98;;
63900;SDS011;50538;53.482;10.294;2022-09-09T20:39:46;1.50;;;0.90;;
63900;SDS011;50538;53.482;10.294;2022-09-09T20:50:11;1.58;;;0.82;;
63900;SDS011;50538;53.482;10.294;2022-09-09T21:21:17;3.40;;;1.00;;
63900;SDS011;50538;53.482;10.294;2022-09-09T21:31:22;4.03;;;0.98;;
63900;SDS011;50538;53.482;10.294;2022-09-09T22:01:42;1.88;;;0.95;;
63900;SDS011;50538;53.482;10.294;2022-09-09T22:22:40;2.78;;;1.15;;
63900;SDS011;50538;53.482;10.294;2022-09-09T22:32:55;2.20;;;0.88;;
63900;SDS011;50538;53.482;10.294;2022-09-09T22:43:25;4.15;;;1.17;;
63900;SDS011;50538;53.482;10.294;2022-09-09T22:53:46;1.90;;;1.00;;
63900;SDS011;50538;53.482;10.294;2022-09-09T23:04:17;1.23;;;0.90;;
63900;SDS011;50538;53.482;10.294;2022-09-09T23:15:03;1.50;;;0.88;;
63900;SDS011;50538;53.482;10.294;2022-09-09T23:25:24;3.30;;;0.90;;
63900;SDS011;50538;53.482;10.294;2022-09-09T23:35:38;1.67;;;0.73;;
63900;SDS011;50538;53.482;10.294;2022-09-09T23:46:02;1.17;;;1.00;;
63900;SDS011;50538;53.482;10.294;2022-09-09T23:56:13;2.35;;;0.85;;
